Time;durP1;ratioP1;P1;durP2;ratioP2;P2;SDS_P1;SDS_P2;PMS_P1;PMS_P2;Temp;Humidity;BMP_temperature;BMP_pressure;BME280_temperature;BME280_humidity;BME280_pressure;Samples;Min_cycle;Max_cycle;Signal;HPM_P1;HPM_P2
2022/01/15 00:02:56;;;;;;;12.50;5.70;;;;;;;-0.24;86.50;99648.41;220206;1271;25408;-70
2022/01/15 00:08:03;;;;;;;16.30;6.40;;;;;;;-0.37;86.55;99652.08;220117;1271;24270;-69
2022/01/15 00:13:13;;;;;;;14.40;6.20;;;;;;;-0.49;86.67;99653.23;219878;1271;26410;-70
2022/01/15 00:19:00;;;;;;;13.10;6.00;;;;;;;-0.59;86.95;99650.73;220215;1271;25532;-69
2022/01/15 00:23:49;;;;;;;9.80;5.00;;;;;;;-0.67;86.94;99647.06;220146;1271;25359;-69
2022/01/15 00:28:52;;;;;;;11.40;4.90;;;;;;;-0.74;87.15;99645.64;219763;1271;26801;-70
2022/01/15 00:34:14;;;;;;;11.50;4.30;;;;;;;-0.77;87.49;99648.45;220254;1270;22557;-70
2022/01/15 00:39:16;;;;;;;17.60;5.30;;;;;;;-0.74;87.92;99647.54;220018;1271;22704;-69
2022/01/15 00:44:19;;;;;;;14.80;5.90;;;;;;;-0.70;87.86;99654.77;220002;1271;25255;-70
2022/01/15 00:49:21;;;;;;;15.30;6.80;;;;;;;-0.68;87.82;99658.02;219926;1270;23854;-70
2022/01/15 00:54:24;;;;;;;14.10;5.30;;;;;;;-0.67;87.91;99656.85;220059;1271;22553;-69
2022/01/15 00:59:29;;;;;;;13.40;5.60;;;;;;;-0.68;87.89;99652.44;219797;1271;24250;-70
2022/01/15 01:05:03;;;;;;;18.90;5.90;;;;;;;-0.69;88.05;99646.28;219996;1271;22706;-70
2022/01/15 01:26:53;;;;;;;19.50;7.20;;;;;;;-0.86;88.07;99669.60;219993;1271;22567;-71
2022/01/15 01:37:48;;;;;;;25.10;9.00;;;;;;;-0.98;88.13;99672.36;220895;1271;22596;-69
2022/01/15 01:48:13;;;;;;;18.80;8.80;;;;;;;-1.00;88.41;99679.05;220731;1271;22543;-70
2022/01/15 01:53:35;;;;;;;18.50;8.70;;;;;;;-0.99;88.34;99670.58;220938;1271;24375;-69
2022/01/15 01:58:38;;;;;;;20.80;10.40;;;;;;;-1.00;88.37;99669.09;220161;1269;22768;-71
2022/01/15 02:04:03;;;;;;;26.40;11.20;;;;;;;-1.05;88.30;99664.23;219783;1271;22548;-69
2022/01/15 02:09:07;;;;;;;20.90;9.40;;;;;;;-1.12;88.37;99661.95;220442;1271;22642;-69
2022/01/15 02:14:28;;;;;;;18.20;10.00;;;;;;;-1.17;88.46;99666.27;220360;1271;22604;-70
2022/01/15 02:19:56;;;;;;;28.10;10.70;;;;;;;-1.16;88.64;99673.65;220039;1271;22704;-70
2022/01/15 02:25:00;;;;;;;23.60;9.80;;;;;;;-1.00;89.49;99675.84;220256;1271;22637;-70
2022/01/15 02:30:14;;;;;;;19.30;9.10;;;;;;;-0.79;89.59;99667.38;220046;1271;22544;-69
2022/01/15 02:35:16;;;;;;;27.30;10.30;;;;;;;-0.62;89.65;99671.98;220028;1271;22771;-69
2022/01/15 02:40:28;;;;;;;23.40;9.70;;;;;;;-0.48;89.70;99674.02;219964;1271;23059;-71
2022/01/15 02:45:43;;;;;;;22.90;9.00;;;;;;;-0.41;89.51;99672.12;220204;1271;22540;-70
2022/01/15 02:50:47;;;;;;;19.70;9.20;;;;;;;-0.35;89.57;99678.13;220210;1271;22557;-70
2022/01/15 02:55:53;;;;;;;21.50;9.30;;;;;;;-0.30;89.22;99682.95;220169;1270;22945;-69
2022/01/15 03:00:58;;;;;;;22.80;8.80;;;;;;;-0.25;89.54;99672.63;220061;1271;22833;-71
2022/01/15 03:06:11;;;;;;;17.00;7.90;;;;;;;-0.21;89.59;99671.39;220645;1271;22995;-70
2022/01/15 03:11:14;;;;;;;17.20;7.90;;;;;;;-0.15;89.58;99673.73;221103;1270;24244;-69
2022/01/15 03:16:24;;;;;;;22.60;7.30;;;;;;;-0.09;89.49;99668.01;221067;1271;22541;-71
2022/01/15 03:21:27;;;;;;;15.40;7.20;;;;;;;-0.02;89.68;99673.42;219911;1271;22697;-69
2022/01/15 03:26:42;;;;;;;18.80;6.20;;;;;;;0.05;89.64;99672.42;220231;1271;22753;-70
2022/01/15 03:31:45;;;;;;;19.40;6.70;;;;;;;0.10;89.54;99676.06;220058;1271;23043;-70
2022/01/15 03:36:47;;;;;;;12.60;5.00;;;;;;;0.16;89.65;99681.48;220515;1271;24743;-69
2022/01/15 03:42:13;;;;;;;15.10;6.20;;;;;;;0.21;89.61;99682.52;220078;1271;24242;-69
2022/01/15 03:47:19;;;;;;;13.30;5.20;;;;;;;0.28;89.70;99694.04;219902;1271;24199;-73
2022/01/15 03:52:31;;;;;;;15.40;6.20;;;;;;;0.33;89.42;99691.50;220151;1271;24249;-69
2022/01/15 03:57:44;;;;;;;16.60;5.30;;;;;;;0.36;89.48;99687.54;219794;1270;22673;-69
2022/01/15 04:02:49;;;;;;;13.10;5.40;;;;;;;0.37;89.42;99689.68;219653;1270;22535;-71
2022/01/15 04:07:55;;;;;;;11.90;5.00;;;;;;;0.37;89.25;99687.66;219820;1271;24252;-70
2022/01/15 04:13:11;;;;;;;9.70;4.90;;;;;;;0.36;89.25;99683.48;220150;1271;22679;-70
2022/01/15 04:18:47;;;;;;;;;;;;;;;0.36;88.90;99692.81;220886;1271;22735;-70
2022/01/15 04:24:30;;;;;;;10.00;4.90;;;;;;;0.39;89.08;99706.52;219844;1271;22725;-70
2022/01/15 04:29:33;;;;;;;15.30;5.50;;;;;;;0.40;88.81;99710.21;220120;1271;25480;-70
2022/01/15 04:34:40;;;;;;;15.80;5.50;;;;;;;0.41;88.73;99707.98;220071;1270;22534;-70
2022/01/15 04:39:57;;;;;;;13.80;5.20;;;;;;;0.43;88.69;99714.72;220133;1271;22547;-70
2022/01/15 04:45:19;;;;;;;18.80;4.90;;;;;;;0.45;88.57;99715.59;220965;1271;24884;-70
2022/01/15 04:50:25;;;;;;;10.90;3.90;;;;;;;0.45;88.43;99713.77;220847;1271;22526;-70
2022/01/15 04:55:40;;;;;;;13.70;6.00;;;;;;;0.46;88.38;99716.23;221101;1271;22545;-70
2022/01/15 05:01:06;;;;;;;11.80;4.40;;;;;;;0.48;88.45;99716.76;220420;1270;22556;-70
2022/01/15 05:06:16;;;;;;;14.60;5.30;;;;;;;0.46;88.41;99721.19;221046;1269;22587;-69
2022/01/15 05:11:46;;;;;;;12.80;4.90;;;;;;;0.47;88.34;99728.16;219752;1271;25489;-70
2022/01/15 05:16:48;;;;;;;11.90;4.50;;;;;;;0.46;88.25;99730.35;220149;1271;25352;-70
2022/01/15 05:21:54;;;;;;;16.30;5.50;;;;;;;0.45;88.12;99721.90;220009;1271;25444;-70
2022/01/15 05:27:00;;;;;;;17.10;5.40;;;;;;;0.44;87.83;99726.54;220072;1271;22605;-69
2022/01/15 05:32:03;;;;;;;13.10;5.00;;;;;;;0.45;88.04;99728.96;219966;1271;25261;-70
2022/01/15 05:37:12;;;;;;;12.70;5.60;;;;;;;0.44;87.86;99732.17;220138;1269;22781;-71
2022/01/15 05:42:23;;;;;;;13.10;5.40;;;;;;;0.44;87.91;99733.30;220293;1271;25474;-71
2022/01/15 05:47:26;;;;;;;13.80;4.70;;;;;;;0.42;87.54;99727.34;219981;1270;22605;-70
2022/01/15 05:52:30;;;;;;;17.40;4.60;;;;;;;0.39;87.86;99726.91;219952;1271;22568;-70
2022/01/15 05:57:33;;;;;;;12.60;4.10;;;;;;;0.36;87.69;99728.36;220984;1270;22570;-70
2022/01/15 06:02:47;;;;;;;11.90;4.90;;;;;;;0.34;87.65;99731.05;220984;1271;24144;-70
2022/01/15 06:08:00;;;;;;;;;;;;;;;;;;;;;
2022/01/15 06:13:26;;;;;;;15.70;5.10;;;;;;;0.35;87.51;99730.40;220002;1271;26373;-70
2022/01/15 06:18:28;;;;;;;12.70;4.50;;;;;;;0.36;87.63;99726.80;219991;1271;22532;-69
2022/01/15 06:23:33;;;;;;;17.20;5.40;;;;;;;0.36;87.84;99734.25;219879;1271;22566;-69
2022/01/15 06:28:44;;;;;;;19.60;6.20;;;;;;;0.38;87.55;99731.98;219820;1271;22560;-70
2022/01/15 06:33:47;;;;;;;14.60;5.50;;;;;;;0.38;87.56;99733.57;220344;1271;22796;-70
2022/01/15 06:39:01;;;;;;;13.90;4.80;;;;;;;0.33;87.59;99742.43;219947;1271;22539;-69
2022/01/15 06:44:25;;;;;;;19.70;5.00;;;;;;;0.30;87.60;99749.39;220829;1271;22543;-70
2022/01/15 06:49:31;;;;;;;12.60;4.50;;;;;;;0.27;87.62;99754.02;221166;1271;22559;-69
2022/01/15 06:54:55;;;;;;;14.70;4.70;;;;;;;0.25;87.45;99765.10;220107;1271;22538;-70
2022/01/15 07:00:01;;;;;;;17.20;5.20;;;;;;;0.21;87.49;99755.96;220074;1270;26510;-70
2022/01/15 07:05:23;;;;;;;10.90;5.00;;;;;;;0.17;87.38;99763.58;220867;1270;24250;-70
2022/01/15 07:10:26;;;;;;;15.30;5.80;;;;;;;0.18;87.53;99765.08;220246;1270;23721;-70
2022/01/15 07:15:40;;;;;;;16.90;5.30;;;;;;;0.18;87.53;99765.20;219653;1271;25446;-69
2022/01/15 07:20:53;;;;;;;18.60;7.40;;;;;;;0.17;87.45;99769.40;219949;1270;25266;-69
2022/01/15 07:25:58;;;;;;;12.70;5.60;;;;;;;0.16;87.43;99771.48;219865;1271;24045;-71
2022/01/15 07:31:14;;;;;;;17.40;5.50;;;;;;;0.15;87.51;99776.86;219789;1270;23334;-69
2022/01/15 07:36:23;;;;;;;16.30;5.60;;;;;;;0.11;87.18;99774.86;219790;1271;26477;-69
2022/01/15 07:41:26;;;;;;;11.10;5.00;;;;;;;0.06;87.08;99779.20;219947;1270;22549;-69
2022/01/15 07:46:33;;;;;;;11.60;5.30;;;;;;;0.07;87.23;99784.39;219665;1270;25325;-72
2022/01/15 07:51:41;;;;;;;14.70;5.10;;;;;;;0.08;87.25;99784.60;219548;1270;22525;-70
2022/01/15 07:56:48;;;;;;;13.50;5.70;;;;;;;0.09;87.21;99790.25;219290;1273;22531;-70
2022/01/15 08:01:53;;;;;;;14.60;5.80;;;;;;;0.13;87.43;99780.62;219821;1270;22557;-69
2022/01/15 08:07:00;;;;;;;14.40;5.30;;;;;;;0.34;87.71;99777.09;219750;1271;22560;-69
2022/01/15 08:12:19;;;;;;;20.20;5.60;;;;;;;0.46;87.33;99773.71;221137;1271;22566;-69
2022/01/15 08:17:49;;;;;;;;;;;;;;;;;;;;;
2022/01/15 08:22:52;;;;;;;15.50;5.80;;;;;;;0.60;86.72;99781.50;220091;1271;25383;-69
2022/01/15 08:28:20;;;;;;;16.70;6.70;;;;;;;0.64;86.76;99785.77;220032;1268;22538;-69
2022/01/15 08:33:25;;;;;;;12.90;5.80;;;;;;;0.65;86.70;99788.73;220099;1269;22975;-70
2022/01/15 08:38:40;;;;;;;18.60;6.60;;;;;;;0.74;86.84;99791.69;220400;1268;25251;-70
2022/01/15 08:43:57;;;;;;;14.20;6.50;;;;;;;0.86;86.67;99788.90;220209;1268;26461;-69
2022/01/15 08:49:00;;;;;;;13.70;6.40;;;;;;;0.83;85.98;99788.94;220260;1268;25371;-69
2022/01/15 08:54:25;;;;;;;17.90;7.50;;;;;;;0.76;85.97;99793.88;219902;1271;25242;-70
2022/01/15 08:59:27;;;;;;;17.60;8.70;;;;;;;0.80;86.19;99799.46;219972;1269;25251;-69
2022/01/15 09:04:29;;;;;;;17.50;9.20;;;;;;;0.90;86.25;99815.96;219843;1268;22544;-70
2022/01/15 09:09:37;;;;;;;18.70;10.00;;;;;;;0.98;86.12;99818.49;219834;1271;22550;-69
2022/01/15 09:14:48;;;;;;;20.40;9.50;;;;;;;1.06;85.81;99826.91;221136;1271;22557;-70
2022/01/15 09:19:55;;;;;;;23.70;10.80;;;;;;;1.14;85.54;99830.42;220856;1271;22566;-70
2022/01/15 09:25:08;;;;;;;;;;;;;;;;;;;;;
2022/01/15 09:30:17;;;;;;;23.40;12.20;;;;;;;1.33;85.30;99841.21;219404;1271;23659;-69
2022/01/15 09:35:54;;;;;;;18.20;10.10;;;;;;;1.43;85.35;99837.98;220057;1271;22537;-69
2022/01/15 09:40:59;;;;;;;20.10;10.30;;;;;;;1.52;85.22;99841.23;220021;1268;26505;-69
2022/01/15 09:46:15;;;;;;;22.20;9.50;;;;;;;1.62;85.00;99833.64;220103;1268;25247;-70
2022/01/15 09:51:23;;;;;;;17.50;7.70;;;;;;;1.82;84.92;99826.07;221315;1271;22733;-71
2022/01/15 09:56:29;;;;;;;14.10;6.00;;;;;;;2.02;84.52;99827.88;221191;1268;25585;-71
2022/01/15 10:01:31;;;;;;;12.10;6.00;;;;;;;2.04;83.53;99832.18;220747;1271;25595;-70
2022/01/15 10:07:11;;;;;;;17.40;7.20;;;;;;;1.90;83.16;99831.10;221147;1270;25037;-71
2022/01/15 10:12:31;;;;;;;15.50;5.20;;;;;;;1.72;82.96;99823.39;221035;1271;25519;-70
2022/01/15 10:17:35;;;;;;;15.50;5.70;;;;;;;1.51;82.56;99816.98;219782;1271;25494;-67
2022/01/15 10:22:49;;;;;;;15.20;5.90;;;;;;;1.34;82.70;99817.08;219688;1271;24118;-70
2022/01/15 10:27:56;;;;;;;17.60;6.00;;;;;;;1.20;82.90;99818.20;219713;1271;25454;-70
2022/01/15 10:32:59;;;;;;;17.90;6.00;;;;;;;1.20;83.23;99815.09;220132;1270;25342;-70
2022/01/15 10:38:05;;;;;;;15.70;5.90;;;;;;;1.28;83.44;99819.65;219930;1268;22647;-70
2022/01/15 10:43:09;;;;;;;16.80;5.50;;;;;;;1.37;83.22;99820.09;220307;1269;26499;-69
2022/01/15 10:48:21;;;;;;;17.90;5.50;;;;;;;1.47;83.15;99820.30;220250;1271;25317;-70
2022/01/15 10:53:36;;;;;;;15.30;5.90;;;;;;;1.63;83.48;99818.59;221620;1271;25222;-69
2022/01/15 10:59:10;;;;;;;14.40;5.10;;;;;;;1.82;83.32;99816.48;221431;1271;22604;-71
2022/01/15 11:04:42;;;;;;;14.00;5.20;;;;;;;2.02;83.35;99817.54;221103;1271;25379;-69
2022/01/15 11:09:56;;;;;;;16.00;5.50;;;;;;;2.25;82.98;99822.58;220878;1271;22638;-70
2022/01/15 11:14:58;;;;;;;16.00;5.50;;;;;;;2.35;82.60;99805.41;220924;1270;22564;-69
2022/01/15 11:20:10;;;;;;;16.90;5.70;;;;;;;2.35;82.12;99811.69;219792;1271;22548;-70
2022/01/15 11:25:15;;;;;;;14.20;4.60;;;;;;;2.25;81.76;99809.15;219799;1271;22473;-69
2022/01/15 11:30:19;;;;;;;10.40;5.30;;;;;;;2.14;81.69;99805.52;219722;1271;22612;-70
2022/01/15 11:35:37;;;;;;;16.00;5.10;;;;;;;2.06;82.02;99803.23;219725;1271;22718;-69
2022/01/15 11:40:47;;;;;;;18.10;5.40;;;;;;;2.12;82.27;99806.30;220041;1271;22626;-71
2022/01/15 11:46:03;;;;;;;19.00;5.50;;;;;;;2.31;82.60;99807.79;219790;1271;22942;-69
2022/01/15 11:51:15;;;;;;;16.20;5.60;;;;;;;2.44;82.11;99804.05;219948;1271;23077;-70
2022/01/15 11:56:22;;;;;;;22.30;6.30;;;;;;;2.45;81.83;99801.15;219646;1268;23819;-69
2022/01/15 12:01:56;;;;;;;11.20;4.40;;;;;;;2.46;81.94;99800.78;220081;1271;24280;-70
2022/01/15 12:07:23;;;;;;;15.30;4.90;;;;;;;2.48;81.68;99793.17;219388;1271;23162;-70
2022/01/15 12:12:31;;;;;;;12.90;4.70;;;;;;;2.46;81.59;99790.08;220313;1271;22569;-70
2022/01/15 12:18:00;;;;;;;16.80;5.60;;;;;;;2.50;81.75;99781.56;219994;1271;22612;-70
2022/01/15 12:23:24;;;;;;;15.00;5.70;;;;;;;2.63;82.06;99773.14;220894;1271;24256;-70
2022/01/15 12:28:42;;;;;;;17.30;5.70;;;;;;;2.73;81.76;99769.23;221190;1271;24682;-70
2022/01/15 12:34:47;;;;;;;13.90;5.10;;;;;;;2.79;81.55;99771.02;221132;1271;25384;-70
2022/01/15 12:39:49;;;;;;;14.00;5.60;;;;;;;2.83;81.31;99770.03;220904;1271;25400;-70
2022/01/15 12:45:25;;;;;;;;;;;;;;;;;;;;;
2022/01/15 12:51:08;;;;;;;15.00;4.80;;;;;;;2.88;81.23;99758.60;219561;1271;23023;-69
2022/01/15 12:57:05;;;;;;;14.00;5.20;;;;;;;2.85;80.91;99761.06;219404;1271;22559;-70
2022/01/15 13:03:18;;;;;;;13.80;5.20;;;;;;;2.91;80.88;99758.55;219929;1271;22662;-70
2022/01/15 13:08:41;;;;;;;16.20;5.80;;;;;;;2.98;80.71;99758.13;219484;1271;25321;-70
2022/01/15 13:13:51;;;;;;;17.80;4.50;;;;;;;3.01;80.29;99756.49;219882;1271;24141;-69
2022/01/15 13:19:02;;;;;;;12.00;3.50;;;;;;;3.01;79.79;99756.65;221261;1271;25385;-71
2022/01/15 13:24:11;;;;;;;13.60;3.50;;;;;;;3.01;79.73;99756.45;220551;1271;23030;-69
2022/01/15 13:29:39;;;;;;;13.20;4.60;;;;;;;3.03;79.41;99751.26;220007;1271;25490;-70
2022/01/15 13:34:50;;;;;;;;;;;;;;;;;;;;;
2022/01/15 13:39:53;;;;;;;17.10;4.20;;;;;;;2.98;78.93;99745.70;219774;1271;22623;-70
2022/01/15 13:45:13;;;;;;;10.70;3.90;;;;;;;2.91;78.45;99734.42;219895;1271;22651;-70
2022/01/15 13:56:08;;;;;;;14.10;3.90;;;;;;;2.80;78.40;99723.10;219918;1271;22719;-70
2022/01/15 14:01:39;;;;;;;15.60;3.70;;;;;;;2.76;78.50;99720.03;219811;1271;22500;-69
2022/01/15 14:06:51;;;;;;;13.10;4.20;;;;;;;2.72;78.55;99720.23;219707;1269;24241;-71
2022/01/15 14:12:07;;;;;;;12.40;4.30;;;;;;;2.61;78.42;99724.80;221101;1271;24309;-70
2022/01/15 14:17:20;;;;;;;16.90;4.20;;;;;;;2.49;78.49;99717.99;220910;1271;23421;-70
2022/01/15 14:22:25;;;;;;;15.60;4.30;;;;;;;2.40;78.75;99718.16;220755;1271;24337;-70
2022/01/15 14:27:31;;;;;;;14.30;4.00;;;;;;;2.33;78.88;99708.55;220069;1271;24328;-69
2022/01/15 14:33:12;;;;;;;;;;;;;;;;;;;;;
2022/01/15 14:39:03;;;;;;;;;;;;;;;;;;;;;
2022/01/15 14:44:13;;;;;;;19.40;6.00;;;;;;;1.91;78.99;99719.94;219626;1271;22560;-70
2022/01/15 14:49:51;;;;;;;17.20;6.20;;;;;;;1.78;79.23;99719.09;219636;1271;22788;-70
2022/01/15 14:55:34;;;;;;;25.20;6.80;;;;;;;1.66;79.55;99721.67;219503;1271;22585;-70
2022/01/15 15:00:49;;;;;;;19.10;7.40;;;;;;;1.54;79.65;99726.45;219805;1271;24334;-71
2022/01/15 15:06:36;;;;;;;20.80;6.40;;;;;;;1.40;79.76;99731.91;219725;1271;22564;-70
2022/01/15 15:11:47;;;;;;;21.20;6.60;;;;;;;1.27;79.92;99738.09;220007;1270;25479;-70
2022/01/15 15:16:51;;;;;;;24.60;8.20;;;;;;;1.18;80.05;99737.73;219892;1271;22572;-70
2022/01/15 15:21:58;;;;;;;22.30;6.40;;;;;;;1.09;80.04;99730.16;219915;1269;22574;-70
2022/01/15 15:27:00;;;;;;;14.90;5.20;;;;;;;0.99;80.15;99727.69;219493;1271;24302;-71
2022/01/15 15:32:02;;;;;;;22.40;6.50;;;;;;;0.88;80.23;99725.80;219632;1271;22542;-69
2022/01/15 15:37:13;;;;;;;21.20;7.90;;;;;;;0.75;80.31;99728.64;219739;1271;22551;-71
2022/01/15 15:42:16;;;;;;;28.00;8.70;;;;;;;0.63;80.69;99731.93;221026;1271;22557;-70
2022/01/15 15:47:21;;;;;;;23.10;7.30;;;;;;;0.54;81.04;99731.34;220882;1271;22587;-71
2022/01/15 15:52:39;;;;;;;26.60;7.50;;;;;;;0.44;81.10;99731.33;220992;1271;22577;-70
2022/01/15 15:58:14;;;;;;;22.50;7.20;;;;;;;0.35;81.38;99736.04;221066;1271;22485;-69
2022/01/15 16:03:30;;;;;;;26.60;8.20;;;;;;;0.25;81.61;99731.86;220286;1271;24295;-70
2022/01/15 16:08:42;;;;;;;;;;;;;;;;;;;;;
2022/01/15 16:13:47;;;;;;;29.00;11.40;;;;;;;0.02;81.64;99747.40;220042;1271;22548;-70
2022/01/15 16:18:55;;;;;;;33.00;11.90;;;;;;;-0.13;81.70;99741.70;220196;1271;25409;-70
2022/01/15 16:23:57;;;;;;;31.80;11.20;;;;;;;-0.21;82.12;99748.13;220179;1271;22758;-70
2022/01/15 16:29:15;;;;;;;35.40;13.40;;;;;;;-0.25;82.39;99745.48;219890;1271;24247;-70
2022/01/15 16:34:58;;;;;;;30.20;11.50;;;;;;;-0.28;82.52;99743.27;219898;1271;25675;-70
2022/01/15 16:40:46;;;;;;;;;;;;;;;;;;;;;
2022/01/15 16:47:00;;;;;;;33.00;13.40;;;;;;;-0.37;82.81;99743.10;219688;1270;25759;-70
2022/01/15 16:52:39;;;;;;;;;;;;;;;;;;;;;
2022/01/15 16:57:57;;;;;;;49.10;17.80;;;;;;;-0.49;82.78;99748.92;220692;1271;25655;-70
2022/01/15 17:03:55;;;;;;;63.70;25.00;;;;;;;-0.64;82.76;99755.78;220152;1271;22571;-69
2022/01/15 17:09:48;;;;;;;52.10;22.00;;;;;;;-0.77;83.00;99750.17;220012;1270;25310;-69
2022/01/15 17:15:36;;;;;;;40.80;17.90;;;;;;;-0.95;82.87;99741.00;220550;1271;24791;-70
2022/01/15 17:21:33;;;;;;;38.70;15.70;;;;;;;-1.16;82.81;99736.84;219498;1271;23165;-70
2022/01/15 17:26:36;;;;;;;35.90;14.90;;;;;;;-1.28;83.14;99733.25;219599;1271;24247;-70
2022/01/15 17:31:53;;;;;;;36.00;14.90;;;;;;;-1.40;83.25;99735.16;219535;1271;22703;-68
2022/01/15 17:36:55;;;;;;;26.70;10.70;;;;;;;-1.47;83.57;99731.80;220119;1271;22799;-70
2022/01/15 17:42:01;;;;;;;34.40;13.40;;;;;;;-1.59;83.69;99736.81;220155;1271;24452;-71
2022/01/15 17:47:04;;;;;;;27.70;11.10;;;;;;;-1.67;84.03;99738.45;219628;1271;24220;-70
2022/01/15 17:52:09;;;;;;;35.70;15.00;;;;;;;-1.73;84.18;99734.12;220152;1271;24241;-70
2022/01/15 17:57:14;;;;;;;48.50;17.30;;;;;;;-1.82;84.23;99733.77;219840;1271;22662;-70
2022/01/15 18:02:31;;;;;;;80.00;32.50;;;;;;;-1.88;84.18;99728.95;220741;1271;25412;-70
2022/01/15 18:07:56;;;;;;;84.00;32.50;;;;;;;-1.93;84.46;99733.98;220669;1270;22635;-72
2022/01/15 18:12:59;;;;;;;67.90;29.40;;;;;;;-1.95;84.75;99727.00;219851;1270;25706;-70
2022/01/15 18:18:09;;;;;;;68.30;28.70;;;;;;;-1.96;85.12;99719.32;219858;1271;22621;-70
2022/01/15 18:23:13;;;;;;;70.70;26.30;;;;;;;-1.94;85.30;99726.33;219973;1270;26290;-70
2022/01/15 18:28:15;;;;;;;70.00;30.30;;;;;;;-1.96;85.47;99728.78;219943;1268;25444;-69
2022/01/15 18:33:18;;;;;;;70.30;30.10;;;;;;;-1.98;85.28;99722.92;219992;1268;22562;-70
2022/01/15 18:38:23;;;;;;;73.60;30.70;;;;;;;-2.00;85.31;99718.81;220222;1271;22613;-70
2022/01/15 18:43:28;;;;;;;85.00;38.70;;;;;;;-2.08;85.10;99715.48;219864;1270;22801;-69
2022/01/15 18:48:34;;;;;;;78.20;38.50;;;;;;;-2.13;85.17;99723.83;220167;1271;22582;-70
2022/01/15 18:53:37;;;;;;;84.70;37.40;;;;;;;-2.16;85.05;99725.24;219504;1271;23789;-69
2022/01/15 18:58:40;;;;;;;99.90;44.70;;;;;;;-2.17;85.41;99727.61;219503;1271;22916;-70
2022/01/15 19:03:42;;;;;;;81.50;34.60;;;;;;;-2.19;85.33;99731.05;219354;1271;26677;-71
2022/01/15 19:08:52;;;;;;;74.10;34.80;;;;;;;-2.18;85.65;99752.73;219673;1270;25684;-70
2022/01/15 19:14:03;;;;;;;64.50;30.00;;;;;;;-2.18;85.72;99775.14;219193;1271;25387;-69
2022/01/15 19:19:26;;;;;;;57.70;26.30;;;;;;;-2.16;85.96;99808.50;219695;1271;24160;-69
2022/01/15 19:24:32;;;;;;;56.80;27.20;;;;;;;-2.14;86.09;99763.16;219767;1271;25639;-70
2022/01/15 19:29:41;;;;;;;213.50;104.70;;;;;;;-2.17;85.67;99707.98;220926;1271;24351;-70
2022/01/15 19:35:06;;;;;;;59.80;28.20;;;;;;;-2.17;85.70;99741.98;220815;1271;22559;-70
2022/01/15 19:40:09;;;;;;;66.50;27.70;;;;;;;-2.18;85.82;99762.61;221177;1271;22720;-69
2022/01/15 19:45:26;;;;;;;69.20;27.30;;;;;;;-2.19;85.79;99731.95;219791;1271;22554;-69
2022/01/15 19:50:31;;;;;;;61.50;29.20;;;;;;;-2.18;85.89;99681.23;219737;1270;25692;-69
2022/01/15 19:55:34;;;;;;;77.40;36.20;;;;;;;-2.35;84.91;99657.31;219746;1271;25452;-70
2022/01/15 20:00:36;;;;;;;104.70;46.80;;;;;;;-2.45;85.03;99660.06;220896;1269;22848;-70
2022/01/15 20:05:44;;;;;;;133.20;58.10;;;;;;;-2.53;84.91;99682.30;220751;1271;22565;-70
2022/01/15 20:11:00;;;;;;;162.70;69.30;;;;;;;-2.63;85.13;99733.66;219898;1271;25226;-70
2022/01/15 20:16:05;;;;;;;165.30;76.40;;;;;;;-2.68;85.24;99743.84;220953;1271;23551;-71
2022/01/15 20:21:07;;;;;;;178.50;74.30;;;;;;;-2.72;85.53;99723.71;220766;1270;176156;-69
2022/01/15 20:26:29;;;;;;;162.70;67.70;;;;;;;-2.79;85.44;99694.07;219725;1271;22569;-70
2022/01/15 20:31:33;;;;;;;150.30;65.40;;;;;;;-2.85;85.62;99668.17;219811;1270;23091;-69
2022/01/15 20:36:38;;;;;;;177.40;72.80;;;;;;;-2.89;85.63;99664.34;219684;1270;25573;-71
2022/01/15 20:41:55;;;;;;;186.30;79.10;;;;;;;-2.95;85.61;99675.27;219568;1270;25570;-69
2022/01/15 20:47:05;;;;;;;189.40;79.40;;;;;;;-2.97;85.91;99680.64;220005;1270;22493;-70
2022/01/15 20:52:07;;;;;;;179.70;77.00;;;;;;;-2.95;86.22;99686.33;219879;1270;22593;-69
2022/01/15 20:57:11;;;;;;;183.10;75.00;;;;;;;-2.94;86.43;99686.15;219757;1270;25637;-69
2022/01/15 21:02:17;;;;;;;174.00;76.80;;;;;;;-2.95;86.29;99679.48;219561;1271;25686;-70
2022/01/15 21:07:19;;;;;;;169.60;73.60;;;;;;;-3.00;85.92;99690.73;219881;1271;22719;-70
2022/01/15 21:12:22;;;;;;;173.20;72.30;;;;;;;-3.03;85.97;99702.74;219745;1271;22689;-71
2022/01/15 21:17:33;;;;;;;160.30;68.40;;;;;;;-3.05;86.20;99713.34;219706;1270;22586;-70
2022/01/15 21:22:39;;;;;;;176.80;76.70;;;;;;;-3.04;86.14;99711.64;219837;1271;22647;-71
2022/01/15 21:27:48;;;;;;;179.90;74.30;;;;;;;-3.05;86.29;99708.50;219905;1271;22737;-70
2022/01/15 21:32:53;;;;;;;168.50;71.50;;;;;;;-3.05;86.41;99695.52;219823;1270;22779;-70
2022/01/15 21:37:55;;;;;;;152.30;66.70;;;;;;;-3.05;86.53;99681.00;219540;1271;22715;-69
2022/01/15 21:42:59;;;;;;;156.10;67.20;;;;;;;-2.99;86.89;99676.86;220131;1270;24339;-70
2022/01/15 21:48:13;;;;;;;161.60;71.70;;;;;;;-2.99;86.66;99658.86;219614;1271;22558;-71
2022/01/15 21:53:23;;;;;;;160.20;68.90;;;;;;;-2.96;86.71;99661.55;219647;1270;22731;-70
2022/01/15 21:58:25;;;;;;;139.00;62.10;;;;;;;-2.96;86.71;99663.67;220132;1270;25370;-70
2022/01/15 22:03:28;;;;;;;136.70;60.50;;;;;;;-2.96;86.66;99665.78;219854;1270;24400;-71
2022/01/15 22:08:40;;;;;;;144.30;59.80;;;;;;;-2.97;86.45;99677.75;219958;1271;24210;-70
2022/01/15 22:13:48;;;;;;;136.80;56.40;;;;;;;-2.98;86.53;99683.30;219985;1271;22600;-70
2022/01/15 22:18:57;;;;;;;128.30;55.40;;;;;;;-2.98;86.57;99675.27;219926;1271;24219;-70
2022/01/15 22:24:04;;;;;;;129.50;54.40;;;;;;;-2.99;86.40;99681.11;220052;1271;24237;-70
2022/01/15 22:29:17;;;;;;;131.00;52.50;;;;;;;-2.96;86.51;99682.39;219901;1271;25529;-70
2022/01/15 22:34:26;;;;;;;122.50;52.90;;;;;;;-2.96;86.48;99680.27;219829;1271;22557;-70
2022/01/15 22:39:29;;;;;;;138.80;58.20;;;;;;;-2.97;86.47;99679.85;219653;1271;22727;-69
2022/01/15 22:44:31;;;;;;;129.20;56.10;;;;;;;-2.97;86.51;99681.85;220091;1271;23567;-70
2022/01/15 22:49:34;;;;;;;136.00;56.60;;;;;;;-2.96;86.41;99684.89;219653;1271;22764;-69
2022/01/15 22:54:37;;;;;;;115.10;52.30;;;;;;;-2.97;86.49;99683.52;219836;1270;22719;-69
2022/01/15 22:59:50;;;;;;;128.20;53.70;;;;;;;-3.03;86.06;99676.05;219732;1271;25770;-70
2022/01/15 23:04:58;;;;;;;122.50;54.80;;;;;;;-3.10;86.12;99671.09;219757;1271;22721;-69
2022/01/15 23:10:14;;;;;;;148.50;62.20;;;;;;;-3.18;85.92;99661.31;219796;1270;22826;-70
2022/01/15 23:15:53;;;;;;;157.40;67.50;;;;;;;-3.25;85.87;99643.13;219725;1270;22898;-70
2022/01/15 23:21:24;;;;;;;184.30;81.20;;;;;;;-3.30;85.98;99625.08;219487;1271;26829;-70
2022/01/15 23:26:36;;;;;;;188.50;83.90;;;;;;;-3.34;86.10;99626.27;219819;1269;22561;-69
2022/01/15 23:32:03;;;;;;;207.50;88.80;;;;;;;-3.35;86.34;99637.94;219531;1271;25327;-70
2022/01/15 23:37:38;;;;;;;218.60;92.60;;;;;;;-3.34;86.43;99627.35;219617;1271;22619;-69
2022/01/15 23:43:26;;;;;;;184.70;83.40;;;;;;;-3.37;86.31;99628.16;219593;1271;22567;-70
2022/01/15 23:49:03;;;;;;;182.00;76.20;;;;;;;-3.40;86.21;99628.41;220519;1271;24332;-69
2022/01/15 23:54:25;;;;;;;;;;;;;;;;;;;;;
